• Join FlightAware (Why Join?)
  • Login
  • US Flag 
08:33AM EDT


 

Airport Tracker/Info


-or-


 

Live Flight TrackerFlight Track Log ✈ UAL1717 ✈ 14-Jul-2013 ✈ KSEA - KIAH

Flight Track Log - Related Links

Times and Time Zones

All times are in EDT time to prevent confusion due to time zone crossing. See the UAL1717 flight status page for this flight to view local times or setup timezone preferences in your user account.

Time Position Orientation Groundspeed Altitude Reporting Facility
EDT Latitude Longitude Course Direction KTS MPH feet Rate Location/Type
04:01AM 47.4715 -122.3070 North 168 193 1,300  Level FlightAware ADS-B
04:01AM 47.4774 -122.3070 360° North 172 198 1,500 1,740 Climbing FlightAware ADS-B
04:01AM 47.4854 -122.3070 360° North 181 208 1,800 1,320 Climbing FlightAware ADS-B
04:01AM 47.4961 -122.3070 360° North 196 226 2,000 1,200 Climbing FlightAware ADS-B
04:01AM 47.5075 -122.3070 360° North 209 241 2,300 1,500 Climbing FlightAware ADS-B
04:01AM 47.5115 -122.3070 360° North 213 245 2,400 1,800 Climbing FlightAware ADS-B
04:01AM 47.5204 -122.3070 360° North 220 253 2,700 2,520 Climbing FlightAware ADS-B
04:02AM 47.5321 -122.3080 357° North 220 253 3,300 2,700 Climbing FlightAware ADS-B
04:02AM 47.5443 -122.3070 North 225 259 3,800 2,220 Climbing FlightAware ADS-B
04:02AM 47.5486 -122.3080 351° North 230 265 3,900 1,500 Climbing FlightAware ADS-B
04:02AM 47.5529 -122.3090 351° North 236 272 4,000 840 Climbing FlightAware ADS-B
04:02AM 47.5561 -122.3110 337° Northwest 241 277 4,000 960 Level FlightAware ADS-B
04:02AM 47.5598 -122.3130 340° North 247 284 4,100 1,680 Climbing FlightAware ADS-B
04:02AM 47.5631 -122.3160 328° Northwest 251 289 4,200 1,680 Climbing FlightAware ADS-B
04:02AM 47.5667 -122.3200 323° Northwest 256 295 4,300 1,980 Climbing FlightAware ADS-B
04:02AM 47.5748 -122.3290 323° Northwest 263 303 4,600 1,980 Climbing FlightAware ADS-B
04:02AM 47.5806 -122.3350 325° Northwest 266 306 4,800 2,820 Climbing FlightAware ADS-B
04:03AM 47.5959 -122.3510 325° Northwest 265 305 5,600 3,360 Climbing FlightAware ADS-B
04:03AM 47.6060 -122.3610 326° Northwest 263 303 6,200 3,660 Climbing FlightAware ADS-B
04:03AM 47.6094 -122.3650 322° Northwest 264 304 6,400 2,520 Climbing FlightAware ADS-B
04:03AM 47.6123 -122.3690 317° Northwest 266 306 6,500 2,520 Climbing FlightAware ADS-B
04:03AM 47.6150 -122.3750 304° West 267 307 6,700 3,000 Climbing FlightAware ADS-B
04:03AM 47.6170 -122.3790 307° West 269 310 6,800 1,320 Climbing FlightAware ADS-B
04:03AM 47.6195 -122.3880 292° West 272 313 6,900 1,320 Climbing FlightAware ADS-B
04:03AM 47.6205 -122.3940 284° West 275 316 7,000 1,980 Climbing FlightAware ADS-B
04:03AM 47.6210 -122.4000 277° West 277 319 7,100 2,520 Climbing FlightAware ADS-B
04:03AM 47.6210 -122.4080 270° West 278 320 7,300 2,220 Climbing FlightAware ADS-B
04:03AM 47.6204 -122.4150 263° West 279 321 7,400 2,520 Climbing FlightAware ADS-B
04:03AM 47.6193 -122.4220 257° West 279 321 7,600 2,520 Climbing FlightAware ADS-B
04:04AM 47.6179 -122.4270 247° West 280 322 7,700 2,220 Climbing FlightAware ADS-B
04:04AM 47.6153 -122.4340 241° Southwest 280 322 7,900 2,520 Climbing FlightAware ADS-B
04:04AM 47.6124 -122.4400 234° Southwest 281 323 8,000 2,520 Climbing FlightAware ADS-B
04:04AM 47.6087 -122.4450 222° Southwest 281 323 8,200 3,000 Climbing FlightAware ADS-B
04:04AM 47.6045 -122.4500 219° Southwest 282 325 8,400 2,520 Climbing FlightAware ADS-B
04:04AM 47.6012 -122.4530 212° Southwest 283 326 8,500 2,520 Climbing FlightAware ADS-B
04:04AM 47.5974 -122.4550 200° South 283 326 8,700 2,520 Climbing FlightAware ADS-B
04:04AM 47.5929 -122.4580 204° Southwest 284 327 8,800 2,520 Climbing FlightAware ADS-B
04:04AM 47.5882 -122.4590 188° South 285 328 9,000 2,220 Climbing FlightAware ADS-B
04:04AM 47.5832 -122.4600 188° South 286 329 9,100 2,520 Climbing FlightAware ADS-B
04:04AM 47.5789 -122.4600 180° South 287 330 9,300 3,240 Climbing FlightAware ADS-B
04:04AM 47.5675 -122.4580 173° South 289 333 9,700 1,860 Climbing FlightAware ADS-B
04:05AM 47.5184 -122.4520 175° South 303 349 10,700 1,500 Climbing FlightAware ADS-B
04:05AM 47.5079 -122.4500 173° South 323 372 10,800 900 Climbing FlightAware ADS-B
04:05AM 47.4983 -122.4460 164° South 332 382 10,900 960 Climbing FlightAware ADS-B
04:05AM 47.4898 -122.4420 162° South 341 392 11,000 960 Climbing FlightAware ADS-B
04:06AM 47.4434 -122.4140 158° South 371 427 11,500 1,140 Climbing FlightAware ADS-B
04:06AM 47.3926 -122.3870 160° South 392 451 12,200 1,860 Climbing FlightAware ADS-B
04:07AM 47.3402 -122.3600 161° South 398 458 13,400 2,400 Climbing FlightAware ADS-B
04:07AM 47.2870 -122.3320 160° South 399 459 14,700 2,340 Climbing FlightAware ADS-B
04:08AM 47.2341 -122.3050 161° South 404 465 15,800 2,100 Climbing FlightAware ADS-B
04:08AM 47.1808 -122.2770 160° South 411 473 16,800 1,740 Climbing FlightAware ADS-B
04:09AM 47.1254 -122.2490 161° South 421 484 17,600 1,560 Climbing FlightAware ADS-B
04:09AM 47.0693 -122.2190 160° South 429 494 18,400 1,680 Climbing FlightAware ADS-B
04:10AM 47.0118 -122.1900 161° South 436 502 19,300 1,800 Climbing FlightAware ADS-B
04:10AM 46.9542 -122.1600 160° South 440 506 20,200 1,740 Climbing FlightAware ADS-B
04:11AM 46.9149 -122.1400 161° South 444 511 20,800 1,500 Climbing FlightAware ADS-B
04:11AM 46.9017 -122.1310 155° Southeast 447 514 20,900 1,200 Climbing FlightAware ADS-B
04:11AM 46.8952 -122.1260 152° Southeast 450 518 21,000 1,500 Climbing FlightAware ADS-B
04:11AM 46.8878 -122.1180 144° Southeast 452 520 21,100 1,620 Climbing FlightAware ADS-B
04:11AM 46.8785 -122.1060 139° Southeast 454 522 21,300 1,500 Climbing FlightAware ADS-B
04:11AM 46.8691 -122.0910 133° Southeast 458 527 21,400 1,500 Climbing FlightAware ADS-B
04:11AM 46.8620 -122.0770 127° Southeast 460 529 21,600 1,500 Climbing FlightAware ADS-B
04:12AM 46.8300 -121.9950 120° Southeast 465 535 22,300 1,320 Climbing FlightAware ADS-B
04:12AM 46.7971 -121.9120 120° Southeast 471 542 23,000 1,200 Climbing FlightAware ADS-B
04:13AM 46.7662 -121.8350 120° Southeast 478 550 23,500 1,020 Climbing FlightAware ADS-B
04:13AM 46.7290 -121.7390 119° Southeast 484 557 24,100 1,080 Climbing FlightAware ADS-B
04:14AM 46.6962 -121.6530 119° Southeast 489 563 24,700 1,200 Climbing FlightAware ADS-B
04:14AM 46.6630 -121.5660 119° Southeast 494 568 25,300 1,140 Climbing FlightAware ADS-B
04:15AM 46.6280 -121.4760 119° Southeast 498 573 25,900 1,080 Climbing FlightAware ADS-B
04:15AM 46.5937 -121.3880 120° Southeast 503 579 26,400 1,080 Climbing FlightAware ADS-B
04:16AM 46.5589 -121.2990 120° Southeast 505 581 27,000 1,140 Climbing FlightAware ADS-B
04:16AM 46.5240 -121.2100 120° Southeast 505 581 27,600 1,140 Climbing FlightAware ADS-B
04:17AM 46.4888 -121.1200 120° Southeast 506 582 28,200 1,200 Climbing FlightAware ADS-B
04:17AM 46.4536 -121.0310 120° Southeast 507 583 28,800 1,200 Climbing FlightAware ADS-B
04:18AM 46.3820 -120.8500 120° Southeast 501 577 30,100 1,260 Climbing FlightAware
04:19AM 46.3450 -120.7570 120° Southeast 499 574 30,800 1,020 Climbing FlightAware
04:20AM 46.2960 -120.6360 120° Southeast 501 577 31,400 840 Climbing FlightAware
04:20AM 46.2480 -120.5150 120° Southeast 504 580 32,000 900 Climbing FlightAware
04:21AM 46.1960 -120.3880 121° Southeast 502 578 32,700 1,020 Climbing FlightAware
04:22AM 46.1490 -120.2750 121° Southeast 498 573 33,500 1,020 Climbing FlightAware
04:22AM 46.0970 -120.1510 121° Southeast 493 567 34,200 900 Climbing FlightAware
04:23AM 46.0490 -120.0390 122° Southeast 491 565 34,800 540 Climbing FlightAware
04:24AM 45.9970 -119.9170 121° Southeast 495 570 35,000 120 Climbing FlightAware
04:24AM 45.9480 -119.8020 121° Southeast 501 577 35,000  Level FlightAware
04:25AM 45.8980 -119.6830 121° Southeast 500 575 35,000  Level FlightAware
04:26AM 45.8490 -119.5680 121° Southeast 499 574 35,000  Level FlightAware
04:27AM 45.7950 -119.4420 122° Southeast 500 575 35,000  Level FlightAware
04:27AM 45.7470 -119.3300 122° Southeast 500 575 35,000  Level FlightAware
04:28AM 45.6930 -119.2050 122° Southeast 500 575 35,000  Level FlightAware
04:29AM 45.6490 -119.1030 122° Southeast 500 575 35,000  Level FlightAware
04:29AM 45.5960 -118.9820 122° Southeast 497 572 35,000  Level FlightAware
04:30AM 45.5400 -118.8560 122° Southeast 496 571 35,000  Level FlightAware
04:31AM 45.4870 -118.7360 122° Southeast 494 568 35,000  Level FlightAware
04:31AM 45.4380 -118.6250 122° Southeast 492 566 35,000  Level FlightAware
04:32AM 45.3850 -118.5050 122° Southeast 488 562 35,000  Level FlightAware
04:33AM 45.3360 -118.3960 123° Southeast 486 559 35,000  Level FlightAware
04:34AM 45.2840 -118.2790 122° Southeast 484 557 35,000  Level FlightAware
04:34AM 45.2370 -118.1740 122° Southeast 481 554 35,000  Level FlightAware
04:35AM 45.1940 -118.0780 122° Southeast 480 552 35,000  Level FlightAware
04:35AM 45.1460 -117.9730 123° Southeast 478 550 35,000  Level FlightAware
04:36AM 45.0910 -117.8530 123° Southeast 478 550 35,000  Level FlightAware
04:37AM 45.0430 -117.7460 122° Southeast 479 551 35,000  Level FlightAware
04:38AM 44.9950 -117.6420 123° Southeast 480 552 35,000  Level FlightAware
04:38AM 44.9420 -117.5260 123° Southeast 484 557 35,000  Level FlightAware
04:39AM 44.8880 -117.4090 123° Southeast 485 558 35,000  Level FlightAware
04:40AM 44.8440 -117.3150 123° Southeast 484 557 35,000  Level FlightAware
04:40AM 44.7960 -117.2100 123° Southeast 483 556 35,000  Level FlightAware
04:41AM 44.7450 -117.1030 124° Southeast 483 556 35,000  Level FlightAware
04:42AM 44.6970 -116.9990 123° Southeast 485 558 35,000  Level FlightAware
04:42AM 44.6420 -116.8830 124° Southeast 486 559 35,000  Level FlightAware
04:43AM 44.5880 -116.7680 123° Southeast 486 559 35,000  Level FlightAware
04:44AM 44.5380 -116.6620 123° Southeast 488 562 35,000  Level FlightAware
04:44AM 44.4850 -116.5510 124° Southeast 486 559 35,000  Level FlightAware
04:45AM 44.4380 -116.4520 124° Southeast 487 560 35,000  Level FlightAware
04:46AM 44.3880 -116.3490 124° Southeast 485 558 35,000  Level FlightAware
04:46AM 44.3380 -116.2460 124° Southeast 488 562 35,000  Level FlightAware
04:47AM 44.2930 -116.1520 124° Southeast 486 559 35,000  Level FlightAware
04:48AM 44.2370 -116.0380 124° Southeast 484 557 35,000  Level FlightAware
04:48AM 44.1870 -115.9330 124° Southeast 483 556 35,000  Level FlightAware
04:49AM 44.1380 -115.8320 124° Southeast 481 554 35,000  Level FlightAware
04:50AM 44.0850 -115.7230 124° Southeast 478 550 35,000  Level FlightAware
04:51AM 44.0300 -115.6120 125° Southeast 476 548 35,000  Level FlightAware
04:51AM 43.9760 -115.5010 124° Southeast 476 548 35,000  Level FlightAware
04:52AM 43.9360 -115.4200 124° Southeast 474 545 35,000  Level FlightAware
04:53AM 43.8830 -115.3130 124° Southeast 471 542 35,000  Level FlightAware
04:53AM 43.8330 -115.2140 125° Southeast 468 539 35,000  Level FlightAware
04:54AM 43.7850 -115.1180 125° Southeast 466 536 35,000  Level FlightAware
04:55AM 43.7340 -115.0160 125° Southeast 468 539 35,000  Level FlightAware
04:55AM 43.6880 -114.9240 125° Southeast 470 541 35,000  Level FlightAware
04:56AM 43.6300 -114.8090 125° Southeast 469 540 35,000  Level FlightAware
04:57AM 43.5810 -114.7140 125° Southeast 469 540 35,000  Level FlightAware
04:57AM 43.5250 -114.6040 125° Southeast 472 543 35,000  Level FlightAware
04:58AM 43.4760 -114.5060 125° Southeast 471 542 35,000  Level FlightAware
04:59AM 43.4230 -114.4020 125° Southeast 469 540 35,000  Level FlightAware
04:59AM 43.3700 -114.3010 126° Southeast 470 541 35,000  Level FlightAware
05:00AM 43.3150 -114.1940 125° Southeast 471 542 35,000  Level FlightAware
05:01AM 43.2650 -114.0970 125° Southeast 471 542 35,000  Level FlightAware
05:02AM 43.2110 -113.9940 126° Southeast 471 542 35,000  Level FlightAware
05:02AM 43.1590 -113.8930 125° Southeast 470 541 35,000  Level FlightAware
05:03AM 43.1110 -113.8010 126° Southeast 470 541 35,000  Level FlightAware
05:04AM 43.0610 -113.7060 126° Southeast 468 539 35,000  Level FlightAware
05:04AM 43.0080 -113.6050 126° Southeast 467 537 35,000  Level FlightAware
05:05AM 42.9540 -113.5030 126° Southeast 467 537 35,000  Level FlightAware
05:06AM 42.8990 -113.4000 126° Southeast 466 536 35,000  Level FlightAware
05:06AM 42.8480 -113.3040 126° Southeast 464 534 35,000  Level FlightAware
05:07AM 42.7990 -113.2100 125° Southeast 463 533 35,000  Level FlightAware
05:08AM 42.7350 -113.0910 126° Southeast 462 532 35,000  Level FlightAware
05:09AM 42.6710 -112.9720 126° Southeast 461 531 35,000  Level FlightAware
05:10AM 42.6020 -112.8450 126° Southeast 465 535 35,000  Level FlightAware
05:10AM 42.5560 -112.7600 126° Southeast 465 535 35,000  Level FlightAware
05:11AM 42.5073 -112.6700 126° Southeast 466 536 35,000  Level FlightAware ADS-B
05:12AM 42.4390 -112.5450 126° Southeast 466 536 35,000  Level FlightAware ADS-B
05:12AM 42.3909 -112.4570 126° Southeast 468 539 35,000  Level FlightAware ADS-B
05:13AM 42.3510 -112.3840 126° Southeast 468 539 35,000  Level FlightAware ADS-B
05:13AM 42.3118 -112.3120 126° Southeast 468 539 35,000  Level FlightAware ADS-B
05:14AM 42.2637 -112.2250 127° Southeast 468 539 35,000  Level FlightAware ADS-B
05:15AM 42.2199 -112.1460 127° Southeast 469 540 35,000  Level FlightAware ADS-B
05:15AM 42.1742 -112.0630 127° Southeast 467 537 35,000  Level FlightAware ADS-B
05:16AM 42.1346 -111.9920 127° Southeast 467 537 35,000  Level FlightAware ADS-B
05:16AM 42.0946 -111.9200 127° Southeast 467 537 35,000  Level FlightAware ADS-B
05:17AM 42.0495 -111.8390 127° Southeast 467 537 35,000  Level FlightAware ADS-B
05:17AM 42.0067 -111.7630 127° Southeast 467 537 35,000  Level FlightAware ADS-B
05:18AM 41.9673 -111.6930 127° Southeast 467 537 35,000  Level FlightAware ADS-B
05:18AM 41.9280 -111.6230 127° Southeast 466 536 35,000  Level FlightAware
05:19AM 41.9091 -111.5890 127° Southeast 466 536 35,000  Level FlightAware ADS-B
05:19AM 41.8683 -111.5170 127° Southeast 467 537 35,000  Level FlightAware ADS-B
05:20AM 41.8286 -111.4470 127° Southeast 466 536 35,000  Level FlightAware ADS-B
05:20AM 41.7824 -111.3650 127° Southeast 465 535 35,000  Level FlightAware ADS-B
05:21AM 41.7431 -111.2960 127° Southeast 464 534 35,000  Level FlightAware ADS-B
05:21AM 41.7038 -111.2270 127° Southeast 462 532 35,000  Level FlightAware ADS-B
05:22AM 41.6640 -111.1570 127° Southeast 462 532 35,000  Level FlightAware ADS-B
05:22AM 41.6253 -111.0900 128° Southeast 460 529 35,000  Level FlightAware ADS-B
05:23AM 41.5865 -111.0220 127° Southeast 459 528 35,000  Level FlightAware ADS-B
05:23AM 41.5470 -110.9530 127° Southeast 459 528 35,000  Level FlightAware ADS-B
05:24AM 41.5081 -110.8860 128° Southeast 458 527 35,000  Level FlightAware ADS-B
05:24AM 41.4689 -110.8180 128° Southeast 458 527 35,000  Level FlightAware ADS-B
05:25AM 41.3760 -110.6570 128° Southeast 456 525 35,000  Level FlightAware
05:26AM 41.3220 -110.5650 128° Southeast 453 521 35,000  Level FlightAware
05:27AM 41.2790 -110.4890 127° Southeast 453 521 35,000  Level FlightAware
05:27AM 41.2390 -110.4190 127° Southeast 453 521 35,000  Level FlightAware
05:28AM 41.1650 -110.2970 129° Southeast 452 520 35,000  Level FlightAware
05:29AM 41.1230 -110.2220 127° Southeast 452 520 35,000  Level FlightAware
05:29AM 41.0690 -110.1340 129° Southeast 456 525 35,000  Level FlightAware
05:30AM 40.9880 -109.9970 128° Southeast 457 526 35,000  Level FlightAware
05:31AM 40.9410 -109.9180 128° Southeast 458 527 35,000  Level FlightAware
05:32AM 40.8770 -109.8110 128° Southeast 460 529 35,000  Level FlightAware
05:33AM 40.8250 -109.7230 128° Southeast 461 531 35,000  Level FlightAware
05:33AM 40.7640 -109.6230 129° Southeast 461 531 35,000  Level FlightAware
05:34AM 40.7210 -109.5500 128° Southeast 462 532 35,000  Level FlightAware
05:35AM 40.6610 -109.4510 129° Southeast 463 533 35,000  Level FlightAware
05:35AM 40.6100 -109.3670 129° Southeast 463 533 35,000  Level FlightAware
05:36AM 40.5500 -109.2690 129° Southeast 463 533 35,000  Level FlightAware
05:37AM 40.4970 -109.1810 128° Southeast 463 533 35,000  Level FlightAware
05:37AM 40.4380 -109.0850 129° Southeast 462 532 35,000  Level FlightAware
05:38AM 40.3850 -108.9970 128° Southeast 463 533 35,000  Level FlightAware
05:39AM 40.3290 -108.9070 129° Southeast 463 533 35,000  Level FlightAware
05:39AM 40.2830 -108.8320 129° Southeast 464 534 35,000  Level FlightAware
05:40AM 40.2210 -108.7320 129° Southeast 465 535 35,000  Level FlightAware
05:41AM 40.1750 -108.6570 129° Southeast 464 534 35,000  Level FlightAware
05:41AM 40.1200 -108.5690 129° Southeast 463 533 35,000  Level FlightAware
05:42AM 40.0640 -108.4790 129° Southeast 463 533 35,000  Level FlightAware
05:43AM 40.0110 -108.3930 129° Southeast 462 532 35,000  Level FlightAware
05:43AM 39.9500 -108.2970 130° Southeast 464 534 35,000  Level FlightAware
05:44AM 39.8910 -108.2030 129° Southeast 464 534 35,000  Level FlightAware
05:44AM 39.8640 -108.1590 129° Southeast 464 534 35,000  Level FlightAware
05:46AM 39.7700 -108.0110 130° Southeast 463 533 35,000  Level FlightAware
05:47AM 39.6910 -107.8860 129° Southeast 466 536 35,000  Level FlightAware
05:47AM 39.6360 -107.8000 130° Southeast 467 537 35,000  Level FlightAware
05:48AM 39.5870 -107.7230 130° Southeast 468 539 35,000  Level FlightAware
05:49AM 39.5180 -107.6150 130° Southeast 463 533 35,000  Level FlightAware
05:49AM 39.4640 -107.5310 130° Southeast 462 532 35,000  Level FlightAware
05:50AM 39.4060 -107.4400 130° Southeast 461 531 35,000  Level FlightAware
05:50AM 39.3915 -107.4180 130° Southeast 462 532 35,000  Level FlightAware ADS-B
05:51AM 39.3499 -107.3540 130° Southeast 461 531 35,000  Level FlightAware ADS-B
05:51AM 39.3084 -107.2900 130° Southeast 461 531 35,000  Level FlightAware ADS-B
05:52AM 39.2668 -107.2260 130° Southeast 462 532 35,000  Level FlightAware ADS-B
05:52AM 39.2253 -107.1620 130° Southeast 461 531 35,000  Level FlightAware ADS-B
05:53AM 39.1838 -107.0980 130° Southeast 461 531 35,000  Level FlightAware ADS-B
05:53AM 39.1420 -107.0340 130° Southeast 461 531 35,000  Level FlightAware ADS-B
05:54AM 39.1005 -106.9710 130° Southeast 461 531 35,000  Level FlightAware ADS-B
05:54AM 39.0594 -106.9080 130° Southeast 462 532 35,000  Level FlightAware ADS-B
05:55AM 39.0166 -106.8430 130° Southeast 463 533 35,000  Level FlightAware ADS-B
05:55AM 38.9747 -106.7790 130° Southeast 463 533 35,000  Level FlightAware ADS-B
05:56AM 38.9327 -106.7160 131° Southeast 463 533 35,000  Level FlightAware ADS-B
05:56AM 38.8909 -106.6520 130° Southeast 465 535 35,000  Level FlightAware ADS-B
05:57AM 38.8449 -106.5830 131° Southeast 465 535 35,000  Level FlightAware ADS-B
05:57AM 38.8031 -106.5200 130° Southeast 465 535 35,000  Level FlightAware ADS-B
05:58AM 38.7612 -106.4570 130° Southeast 467 537 35,000  Level FlightAware ADS-B
05:58AM 38.7189 -106.3930 130° Southeast 466 536 35,000  Level FlightAware ADS-B
05:59AM 38.6747 -106.3270 131° Southeast 467 537 35,000  Level FlightAware ADS-B
05:59AM 38.6322 -106.2630 130° Southeast 466 536 35,000  Level FlightAware ADS-B
06:00AM 38.5900 -106.2000 131° Southeast 466 536 35,000  Level FlightAware ADS-B
06:00AM 38.5478 -106.1370 131° Southeast 465 535 35,000  Level FlightAware ADS-B
06:01AM 38.5011 -106.0680 131° Southeast 464 534 35,000  Level FlightAware ADS-B
06:01AM 38.4582 -106.0040 131° Southeast 463 533 35,000  Level FlightAware ADS-B
06:02AM 38.4163 -105.9420 131° Southeast 463 533 35,000  Level FlightAware ADS-B
06:02AM 38.3737 -105.8790 131° Southeast 463 533 35,000  Level FlightAware ADS-B
06:03AM 38.3318 -105.8170 131° Southeast 462 532 35,000  Level FlightAware ADS-B
06:03AM 38.2894 -105.7550 131° Southeast 461 531 35,000  Level FlightAware ADS-B
06:04AM 38.2475 -105.6930 131° Southeast 461 531 35,000  Level FlightAware ADS-B
06:04AM 38.2055 -105.6320 131° Southeast 460 529 35,000  Level FlightAware ADS-B
06:05AM 38.1633 -105.5700 131° Southeast 459 528 35,000  Level FlightAware ADS-B
06:05AM 38.1210 -105.5080 131° Southeast 459 528 35,000  Level FlightAware ADS-B
06:06AM 38.0791 -105.4470 131° Southeast 459 528 35,000  Level FlightAware ADS-B
06:06AM 38.0368 -105.3860 131° Southeast 461 531 35,000  Level FlightAware ADS-B
06:07AM 37.9944 -105.3240 131° Southeast 461 531 35,000  Level FlightAware ADS-B
06:07AM 37.9518 -105.2620 131° Southeast 462 532 35,000  Level FlightAware ADS-B
06:08AM 37.9091 -105.2000 131° Southeast 463 533 35,000  Level FlightAware ADS-B
06:09AM 37.8663 -105.1390 132° Southeast 464 534 35,000  Level FlightAware ADS-B
06:09AM 37.8237 -105.0770 131° Southeast 465 535 35,000  Level FlightAware ADS-B
06:10AM 37.7801 -105.0150 132° Southeast 466 536 35,000  Level FlightAware ADS-B
06:10AM 37.7367 -104.9520 131° Southeast 466 536 35,000  Level FlightAware ADS-B
06:11AM 37.6941 -104.8910 131° Southeast 466 536 35,000  Level FlightAware ADS-B
06:11AM 37.6508 -104.8290 131° Southeast 465 535 35,000  Level FlightAware ADS-B
06:12AM 37.5850 -104.7350 131° Southeast 464 534 35,000  Level FlightAware ADS-B
06:12AM 37.5284 -104.6540 131° Southeast 463 533 35,000  Level FlightAware ADS-B
06:13AM 37.4606 -104.5580 132° Southeast 463 533 35,000  Level FlightAware ADS-B
06:14AM 37.4131 -104.4910 132° Southeast 463 533 35,000  Level FlightAware ADS-B
06:14AM 37.3683 -104.4280 132° Southeast 463 533 35,000  Level FlightAware ADS-B
06:15AM 37.3118 -104.3480 132° Southeast 465 535 35,000  Level FlightAware ADS-B
06:16AM 37.2686 -104.2870 132° Southeast 465 535 35,000  Level FlightAware ADS-B
06:16AM 37.2070 -104.2010 132° Southeast 465 535 35,000  Level FlightAware ADS-B
06:19AM 36.9629 -103.8600 132° Southeast 468 539 35,000  Level FlightAware ADS-B
06:20AM 36.9169 -103.7970 132° Southeast 468 539 35,000  Level FlightAware ADS-B
06:20AM 36.8708 -103.7336 132° Southeast 468 539 35,000  Level Denver Center
06:21AM 36.7883 -103.6189 132° Southeast 466 536 35,000  Level Denver Center
06:22AM 36.6914 -103.4869 132° Southeast 464 534 35,000  Level Denver Center
06:24AM 36.5697 -103.3183 132° Southeast 465 535 35,000  Level Albuquerque Center
06:25AM 36.4803 -103.1981 133° Southeast 467 537 35,000  Level Albuquerque Center
06:26AM 36.3922 -103.0781 132° Southeast 465 535 35,000  Level Albuquerque Center
06:27AM 36.3178 -102.9786 133° Southeast 466 536 35,000  Level Albuquerque Center
06:28AM 36.2192 -102.8442 132° Southeast 469 540 35,000  Level Albuquerque Center
06:29AM 36.1297 -102.7247 133° Southeast 472 543 35,000  Level Albuquerque Center
06:30AM 36.0406 -102.6047 133° Southeast 473 544 35,000  Level Albuquerque Center
06:31AM 35.9514 -102.4856 133° Southeast 473 544 35,000  Level Albuquerque Center
06:32AM 35.8617 -102.3661 133° Southeast 475 547 35,000  Level Albuquerque Center
06:33AM 35.7706 -102.2461 133° Southeast 477 549 35,000  Level Albuquerque Center
06:34AM 35.6806 -102.1261 133° Southeast 477 549 35,000  Level Albuquerque Center
06:35AM 35.5897 -102.0078 133° Southeast 478 550 35,000  Level Albuquerque Center
06:36AM 35.5022 -101.8900 132° Southeast 476 548 35,000  Level Albuquerque Center
06:37AM 35.4092 -101.7708 134° Southeast 478 550 35,000  Level Albuquerque Center
06:38AM 35.3181 -101.6514 133° Southeast 475 547 35,000  Level Albuquerque Center
06:39AM 35.2314 -101.5383 133° Southeast 474 545 35,000  Level Albuquerque Center
06:40AM 35.1392 -101.4200 134° Southeast 476 548 35,000  Level Albuquerque Center
06:41AM 35.0525 -101.3108 134° Southeast 486 559 35,000  Level Albuquerque Center
06:42AM 34.9619 -101.1936 133° Southeast 481 554 35,000  Level Albuquerque Center
06:43AM 34.8706 -101.0775 134° Southeast 476 548 35,000  Level Albuquerque Center
06:44AM 34.7792 -100.9603 133° Southeast 477 549 35,000  Level Albuquerque Center
06:49AM 34.2930 -100.3490 133° Southeast 480 552 35,000  Level FlightAware
06:50AM 34.2180 -100.2530 133° Southeast 480 552 35,000  Level FlightAware
06:50AM 34.1720 -100.1930 133° Southeast 480 552 35,000  Level FlightAware
06:51AM 34.0930 -100.0920 133° Southeast 480 552 35,000  Level FlightAware
06:52AM 33.9850 -99.9660 136° Southeast 482 555 35,000  Level FlightAware
06:53AM 33.9120 -99.8770 135° Southeast 481 554 35,000  Level FlightAware
06:54AM 33.8560 -99.8070 134° Southeast 481 554 35,000  Level FlightAware
06:54AM 33.8090 -99.7480 134° Southeast 481 554 35,000  Level FlightAware
06:55AM 33.7450 -99.6680 134° Southeast 481 554 35,000  Level FlightAware
06:56AM 33.6820 -99.5890 134° Southeast 481 554 35,000  Level FlightAware
06:56AM 33.5840 -99.4750 136° Southeast 480 552 35,000  Level FlightAware
06:57AM 33.5320 -99.4090 133° Southeast 480 552 35,000  Level FlightAware
06:58AM 33.4550 -99.3180 135° Southeast 481 554 35,000  Level FlightAware
06:58AM 33.4020 -99.2530 134° Southeast 481 554 35,000  Level FlightAware
06:59AM 33.3390 -99.1740 134° Southeast 481 554 35,000  Level FlightAware
07:00AM 33.2560 -99.0770 136° Southeast 485 558 35,000  Level FlightAware
07:01AM 33.1910 -99.0000 135° Southeast 487 560 35,000  Level FlightAware
07:01AM 33.1200 -98.9140 135° Southeast 487 560 35,000  Level FlightAware
07:02AM 33.0630 -98.8460 135° Southeast 487 560 35,000  Level FlightAware
07:03AM 33.0000 -98.7710 135° Southeast 490 564 35,000  Level FlightAware
07:03AM 32.9290 -98.6860 135° Southeast 490 564 35,000  Level FlightAware
07:04AM 32.8740 -98.6200 135° Southeast 491 565 35,000  Level FlightAware
07:05AM 32.8060 -98.5400 135° Southeast 491 565 35,000  Level FlightAware
07:05AM 32.7360 -98.4570 135° Southeast 492 566 35,000  Level FlightAware
07:06AM 32.6680 -98.3760 135° Southeast 494 568 35,000  Level FlightAware
07:07AM 32.6030 -98.3000 135° Southeast 495 570 35,000  Level FlightAware
07:07AM 32.5350 -98.2200 135° Southeast 495 570 35,000  Level FlightAware
07:08AM 32.4720 -98.1460 135° Southeast 496 571 35,000  Level FlightAware
07:09AM 32.3980 -98.0590 135° Southeast 497 572 35,000  Level FlightAware
07:09AM 32.3300 -97.9790 135° Southeast 499 574 35,000  Level FlightAware
07:10AM 32.2503 -97.8869 136° Southeast 500 575 35,000  Level FlightAware ADS-B
07:11AM 32.2004 -97.8287 135° Southeast 499 574 35,000  Level FlightAware ADS-B
07:12AM 32.1190 -97.7340 135° Southeast 498 573 35,000  Level FlightAware
07:12AM 32.0893 -97.7000 136° Southeast 499 574 35,000  Level FlightAware ADS-B
07:12AM 32.0399 -97.6429 136° Southeast 497 572 35,000  Level FlightAware ADS-B
07:13AM 31.9715 -97.5641 136° Southeast 496 571 35,000  Level FlightAware ADS-B
07:14AM 31.9224 -97.5078 136° Southeast 495 570 35,000  Level FlightAware ADS-B
07:14AM 31.8726 -97.4509 136° Southeast 493 567 35,000 -420 Level FlightAware ADS-B
07:15AM 31.7962 -97.3635 136° Southeast 494 568 34,500 -780 Descending FlightAware ADS-B
07:15AM 31.7414 -97.3010 136° Southeast 500 575 34,000 -960 Descending FlightAware ADS-B
07:16AM 31.6907 -97.2434 136° Southeast 501 577 33,500 -1,020 Descending FlightAware ADS-B
07:16AM 31.6403 -97.1865 136° Southeast 496 571 33,000 -1,020 Descending FlightAware ADS-B
07:17AM 31.5908 -97.1304 136° Southeast 496 571 32,500 -1,020 Descending FlightAware ADS-B
07:17AM 31.5401 -97.0728 136° Southeast 499 574 32,000 -900 Descending FlightAware ADS-B
07:18AM 31.4893 -97.0149 136° Southeast 503 579 31,600 -960 Descending FlightAware ADS-B
07:19AM 31.3348 -96.8406 136° Southeast 512 589 30,100 -1,020 Descending FlightAware ADS-B
07:21AM 31.1295 -96.6110 136° Southeast 509 586 28,000 -1,500 Descending FlightAware ADS-B
07:22AM 31.0585 -96.5350 140° Southeast 508 585 26,100 -2,040 Descending FlightAware ADS-B
07:23AM 31.0000 -96.4866 145° Southeast 509 586 25,600 -2,340 Descending FlightAware ADS-B
07:24AM 30.8279 -96.3482 145° Southeast 486 559 21,500 -2,760 Descending FlightAware ADS-B
07:24AM 30.8147 -96.3366 143° Southeast 480 552 21,200 -2,280 Descending FlightAware ADS-B
07:25AM 30.7414 -96.2619 138° Southeast 454 522 19,500 -2,040 Descending FlightAware ADS-B
07:25AM 30.7341 -96.2534 135° Southeast 447 514 19,500 -1,020 Level FlightAware ADS-B
07:26AM 30.6943 -96.1940 126° Southeast 436 502 18,900 -1,200 Descending FlightAware ADS-B
07:26AM 30.6806 -96.1673 121° Southeast 436 502 18,600 -1,140 Descending FlightAware ADS-B
07:26AM 30.6534 -96.1038 116° Southeast 436 502 18,100 -1,020 Descending FlightAware ADS-B
07:27AM 30.6270 -96.0398 116° Southeast 433 498 17,600 -1,560 Descending FlightAware ADS-B
07:29AM 30.5023 -95.7350 116° Southeast 398 458 13,400 -1,860 Descending FlightAware ADS-B
07:30AM 30.4782 -95.6774 116° Southeast 392 451 12,100 -2,220 Descending FlightAware ADS-B
07:30AM 30.4548 -95.6209 116° Southeast 380 437 11,200 -1,320 Descending FlightAware ADS-B
07:31AM 30.4104 -95.5143 116° Southeast 345 397 10,100 -960 Descending FlightAware ADS-B
07:32AM 30.4001 -95.4899 116° Southeast 333 383 10,000 -420 Descending FlightAware ADS-B
07:32AM 30.3808 -95.4436 116° Southeast 333 383 9,800 -660 Descending FlightAware ADS-B
07:32AM 30.3714 -95.4213 116° Southeast 299 344 9,500 -1,200 Descending FlightAware ADS-B
07:33AM 30.3622 -95.3992 116° Southeast 297 342 9,200 -1,200 Descending FlightAware ADS-B
07:33AM 30.3531 -95.3776 116° Southeast 294 338 8,900 -1,200 Descending FlightAware ADS-B
07:33AM 30.3442 -95.3565 116° Southeast 292 336 8,600 -1,200 Descending FlightAware ADS-B
07:33AM 30.3350 -95.3349 116° Southeast 291 335 8,300 -1,080 Descending FlightAware ADS-B
07:34AM 30.3175 -95.2931 116° Southeast 285 328 7,800 -1,020 Descending FlightAware ADS-B
07:34AM 30.3103 -95.2773 121° Southeast 284 327 7,600 -1,200 Descending FlightAware ADS-B
07:34AM 30.3079 -95.2730 123° Southeast 284 327 7,500 -1,920 Descending FlightAware ADS-B
07:34AM 30.2963 -95.2541 125° Southeast 286 329 7,000 -1,800 Descending FlightAware ADS-B
07:35AM 30.2930 -95.2493 129° Southeast 288 331 6,900 -2,220 Descending FlightAware ADS-B
07:35AM 30.2864 -95.2418 138° Southeast 291 335 6,600 -1,860 Descending FlightAware ADS-B
07:35AM 30.2657 -95.2242 144° Southeast 290 334 6,100 -1,620 Descending FlightAware ADS-B
07:35AM 30.2496 -95.2105 144° Southeast 285 328 5,700 -1,380 Descending FlightAware ADS-B
07:36AM 30.2325 -95.1957 143° Southeast 280 322 5,400 -1,320 Descending FlightAware ADS-B
07:36AM 30.2166 -95.1818 143° Southeast 275 316 5,000 -1,380 Descending FlightAware ADS-B
07:36AM 30.2014 -95.1687 143° Southeast 272 313 4,700 -1,380 Descending FlightAware ADS-B
07:36AM 30.1854 -95.1549 143° Southeast 269 310 4,300 -1,620 Descending FlightAware ADS-B
07:37AM 30.1552 -95.1287 143° Southeast 266 306 3,500 -1,620 Descending FlightAware ADS-B
07:37AM 30.1403 -95.1156 143° Southeast 266 306 3,100 -1,500 Descending FlightAware ADS-B
07:37AM 30.1315 -95.1089 147° Southeast 266 306 2,900 -1,440 Descending FlightAware ADS-B
07:37AM 30.1272 -95.1066 155° Southeast 264 304 2,800 -840 Descending FlightAware ADS-B
07:38AM 30.1051 -95.0987 163° South 251 289 2,600 -660 Descending FlightAware ADS-B
07:38AM 30.0635 -95.0853 165° South 225 259 2,200 -780 Descending FlightAware ADS-B
07:38AM 30.0545 -95.0842 177° South 220 253 2,000 -1,020 Descending FlightAware ADS-B
07:38AM 30.0507 -95.0847 186° South 219 252 2,000  Level FlightAware ADS-B
07:39AM 30.0473 -95.0855 192° South 218 251 2,000  Level FlightAware ADS-B
07:39AM 30.0168 -95.0933 193° South 216 249 2,000  Level FlightAware ADS-B
07:39AM 30.0021 -95.0973 193° South 215 247 2,000  Level FlightAware ADS-B
07:39AM 29.9969 -95.0989 195° South 215 247 2,000  Level FlightAware ADS-B
07:39AM 29.9937 -95.1004 202° Southwest 213 245 2,000  Level FlightAware ADS-B